createdAt,value
2023-10-10T00:00:24.981Z,18.52
2023-10-10T00:02:52.590Z,17.07
2023-10-10T00:05:20.287Z,17.48
2023-10-10T00:07:47.906Z,16.20
2023-10-10T00:10:14.589Z,16.50
2023-10-10T00:12:41.474Z,16.77
2023-10-10T00:15:14.782Z,16.30
2023-10-10T00:17:42.405Z,15.15
2023-10-10T00:20:23.375Z,16.27
2023-10-10T00:22:51.052Z,15.52
2023-10-10T00:25:19.888Z,16.38
2023-10-10T00:27:48.204Z,14.63
2023-10-10T00:30:15.086Z,18.70
2023-10-10T00:32:44.056Z,19.98
2023-10-10T00:35:13.309Z,16.38
2023-10-10T00:37:39.776Z,17.35
2023-10-10T00:40:11.316Z,15.80
2023-10-10T00:42:38.505Z,13.85
2023-10-10T00:45:15.270Z,16.58
2023-10-10T00:47:48.682Z,17.23
2023-10-10T00:50:17.750Z,15.68
2023-10-10T00:52:49.774Z,15.53
2023-10-10T00:55:22.992Z,14.98
2023-10-10T00:57:53.911Z,15.05
2023-10-10T01:00:21.365Z,14.82
2023-10-10T01:02:51.027Z,17.25
2023-10-10T01:05:24.547Z,15.27
2023-10-10T01:07:52.494Z,16.17
2023-10-10T01:10:19.104Z,16.05
2023-10-10T01:12:47.770Z,15.25
2023-10-10T01:15:15.037Z,17.08
2023-10-10T01:17:44.130Z,16.13
2023-10-10T01:20:35.372Z,17.85
2023-10-10T01:23:03.811Z,19.70
2023-10-10T01:25:36.559Z,20.48
2023-10-10T01:28:17.265Z,19.38
2023-10-10T01:30:56.590Z,18.80
2023-10-10T01:33:26.329Z,18.15
2023-10-10T01:35:56.967Z,17.15
2023-10-10T01:39:19.960Z,18.23
2023-10-10T01:41:49.722Z,17.85
2023-10-10T01:44:19.484Z,19.17
2023-10-10T01:46:46.626Z,18.63
2023-10-10T01:49:21.597Z,18.27
2023-10-10T01:51:56.257Z,22.48
2023-10-10T01:54:35.806Z,20.45
2023-10-10T01:57:05.266Z,21.27
2023-10-10T01:59:36.732Z,18.60
2023-10-10T02:02:10.155Z,21.90
2023-10-10T02:04:37.504Z,20.63
2023-10-10T02:07:14.766Z,22.33
2023-10-10T02:09:41.530Z,24.30
2023-10-10T02:12:17.067Z,26.83
2023-10-10T02:14:46.683Z,23.20
2023-10-10T02:17:24.292Z,24.38
2023-10-10T02:19:55.590Z,27.42
2023-10-10T02:22:34.145Z,27.10
2023-10-10T02:25:32.753Z,25.67
2023-10-10T02:28:04.319Z,34.33
2023-10-10T02:30:37.486Z,29.50
2023-10-10T02:33:24.631Z,33.30
2023-10-10T02:35:55.583Z,28.60
2023-10-10T02:38:41.748Z,34.05
2023-10-10T02:41:35.236Z,30.67
2023-10-10T02:44:11.164Z,29.83
2023-10-10T02:46:39.541Z,29.55
2023-10-10T02:49:24.106Z,33.63
2023-10-10T02:51:57.772Z,32.97
2023-10-10T02:54:35.769Z,36.80
2023-10-10T02:57:25.225Z,33.40
2023-10-10T02:59:53.509Z,32.42
2023-10-10T03:02:20.959Z,35.07
2023-10-10T03:05:06.982Z,34.53
2023-10-10T03:07:36.452Z,40.22
2023-10-10T03:10:16.073Z,37.15
2023-10-10T03:12:43.252Z,34.25
2023-10-10T03:15:15.960Z,37.00
2023-10-10T03:17:49.466Z,37.92
2023-10-10T03:20:25.679Z,38.72
2023-10-10T03:23:11.901Z,42.17
2023-10-10T03:25:47.657Z,41.05
2023-10-10T03:28:31.775Z,40.43
2023-10-10T03:31:24.725Z,40.60
2023-10-10T03:34:10.474Z,37.65
2023-10-10T03:36:46.487Z,38.97
2023-10-10T03:39:18.409Z,41.55
2023-10-10T03:42:03.574Z,44.80
2023-10-10T03:44:48.388Z,40.47
2023-10-10T03:47:33.404Z,41.25
2023-10-10T03:50:20.360Z,45.58
2023-10-10T03:53:05.627Z,43.60
2023-10-10T03:56:08.218Z,42.43
2023-10-10T03:58:53.136Z,43.35
2023-10-10T04:01:37.855Z,48.67
2023-10-10T04:04:23.384Z,45.95
2023-10-10T04:07:08.476Z,47.20
2023-10-10T04:09:53.385Z,46.13
2023-10-10T04:12:38.336Z,44.13
2023-10-10T04:15:23.702Z,41.70
2023-10-10T04:18:08.491Z,44.83
2023-10-10T04:20:53.243Z,45.40
2023-10-10T04:23:38.574Z,42.43
2023-10-10T04:26:23.912Z,41.33
2023-10-10T04:29:09.077Z,45.25
2023-10-10T04:31:54.341Z,44.63
2023-10-10T04:34:39.551Z,43.88
2023-10-10T04:37:24.366Z,45.93
2023-10-10T04:40:09.127Z,45.90
2023-10-10T04:42:53.996Z,44.72
2023-10-10T04:45:38.971Z,42.58
2023-10-10T04:48:24.483Z,44.88
2023-10-10T04:51:10.437Z,42.27
2023-10-10T04:53:55.862Z,44.28
2023-10-10T04:56:40.762Z,44.22
2023-10-10T04:59:45.417Z,41.78
2023-10-10T05:02:30.766Z,39.42
2023-10-10T05:05:15.907Z,40.87
2023-10-10T05:08:00.906Z,39.15
2023-10-10T05:10:46.019Z,38.40
2023-10-10T05:13:30.925Z,26.25
2023-10-10T05:16:21.853Z,35.25
2023-10-10T05:19:06.843Z,25.50
2023-10-10T05:21:51.692Z,30.63
2023-10-10T05:24:22.103Z,26.98
2023-10-10T05:26:48.723Z,33.95
2023-10-10T05:29:15.880Z,30.35
2023-10-10T05:31:45.840Z,32.20
2023-10-10T05:34:16.288Z,31.20
2023-10-10T05:36:43.599Z,29.65
2023-10-10T05:39:18.774Z,28.70
2023-10-10T05:41:45.857Z,29.30
2023-10-10T05:44:14.715Z,32.97
2023-10-10T05:46:41.695Z,28.40
2023-10-10T05:49:08.202Z,31.95
2023-10-10T05:51:34.658Z,31.95
2023-10-10T05:54:01.087Z,34.67
2023-10-10T05:56:27.689Z,28.67
2023-10-10T05:58:55.141Z,30.45
2023-10-10T06:01:21.868Z,33.55
2023-10-10T06:03:48.469Z,34.97
2023-10-10T06:06:16.919Z,33.08
2023-10-10T06:08:44.101Z,31.47
2023-10-10T06:11:12.707Z,36.45
2023-10-10T06:13:41.876Z,36.17
2023-10-10T06:16:18.850Z,35.30
2023-10-10T06:18:47.505Z,32.70
2023-10-10T06:21:16.085Z,36.27
2023-10-10T06:23:45.428Z,34.42
2023-10-10T06:26:13.852Z,31.30
2023-10-10T06:28:46.852Z,36.13
2023-10-10T06:31:21.904Z,33.78
2023-10-10T06:33:52.160Z,38.07
2023-10-10T06:36:33.578Z,42.10
2023-10-10T06:39:02.792Z,42.28
2023-10-10T06:41:36.528Z,41.50
2023-10-10T06:44:05.683Z,44.85
2023-10-10T06:46:38.319Z,42.47
2023-10-10T06:49:07.947Z,43.38
2023-10-10T06:51:40.946Z,44.88
2023-10-10T06:54:09.901Z,44.70
2023-10-10T06:56:46.846Z,46.05
2023-10-10T06:59:21.775Z,46.93
2023-10-10T07:01:49.609Z,46.28
2023-10-10T07:04:17.709Z,47.03
2023-10-10T07:06:46.081Z,49.65
2023-10-10T07:09:15.814Z,45.38
2023-10-10T07:11:43.189Z,49.20
2023-10-10T07:14:12.060Z,51.53
2023-10-10T07:16:44.337Z,45.22
2023-10-10T07:19:21.079Z,50.13
2023-10-10T07:21:49.066Z,50.53
2023-10-10T07:24:16.766Z,52.30
2023-10-10T07:26:45.002Z,49.53
2023-10-10T07:29:27.331Z,52.72
2023-10-10T07:32:08.483Z,53.20
2023-10-10T07:34:40.344Z,51.05
2023-10-10T07:37:09.989Z,47.97
2023-10-10T07:39:37.872Z,47.53
2023-10-10T07:42:10.395Z,49.95
2023-10-10T07:44:37.576Z,50.55
2023-10-10T07:47:11.082Z,51.65
2023-10-10T07:49:41.303Z,45.13
2023-10-10T07:52:17.137Z,47.10
2023-10-10T07:54:47.083Z,46.47
2023-10-10T07:57:19.920Z,44.97
2023-10-10T07:59:47.655Z,42.03
2023-10-10T08:02:27.949Z,41.17
2023-10-10T08:04:55.470Z,44.47
2023-10-10T08:07:24.899Z,42.97
2023-10-10T08:10:11.886Z,41.90
2023-10-10T08:12:39.373Z,43.50
2023-10-10T08:15:20.542Z,40.27
2023-10-10T08:17:56.774Z,39.92
2023-10-10T08:20:44.158Z,39.92
2023-10-10T08:23:10.848Z,42.42
2023-10-10T08:25:39.972Z,39.55
2023-10-10T08:28:07.579Z,44.93
2023-10-10T08:30:34.749Z,39.35
2023-10-10T08:33:02.924Z,38.67
2023-10-10T08:35:31.318Z,38.17
2023-10-10T08:37:58.351Z,36.10
2023-10-10T08:40:31.711Z,40.13
2023-10-10T08:42:58.480Z,38.10
2023-10-10T08:45:26.617Z,37.88
2023-10-10T08:48:04.156Z,34.95
2023-10-10T08:50:34.897Z,33.35
2023-10-10T08:53:01.612Z,36.00
2023-10-10T08:55:29.234Z,41.20
2023-10-10T08:57:56.746Z,35.00
2023-10-10T09:00:28.164Z,38.67
2023-10-10T09:02:56.341Z,35.58
2023-10-10T09:05:25.386Z,37.80
2023-10-10T09:07:54.244Z,37.10
2023-10-10T09:10:29.444Z,37.05
2023-10-10T09:12:56.843Z,38.33
2023-10-10T09:15:24.891Z,37.40
2023-10-10T09:17:56.983Z,33.80
2023-10-10T09:20:31.591Z,36.85
2023-10-10T09:23:17.135Z,31.80
2023-10-10T09:25:45.386Z,34.72
2023-10-10T09:28:16.865Z,33.15
2023-10-10T09:31:13.859Z,32.77
2023-10-10T09:33:46.767Z,37.20
2023-10-10T09:36:20.722Z,35.42
2023-10-10T09:38:55.749Z,40.33
2023-10-10T09:41:32.411Z,32.20
2023-10-10T09:44:24.401Z,32.97
2023-10-10T09:47:10.262Z,39.20
2023-10-10T09:49:41.720Z,40.05
2023-10-10T09:52:32.230Z,35.53
2023-10-10T09:55:27.094Z,35.60
2023-10-10T09:58:06.837Z,35.90
2023-10-10T10:00:43.518Z,37.15
2023-10-10T10:03:30.370Z,35.22
2023-10-10T10:06:29.818Z,37.65
2023-10-10T10:09:33.574Z,32.78
2023-10-10T10:12:20.458Z,37.17
2023-10-10T10:15:21.049Z,35.85
2023-10-10T10:18:20.588Z,34.03
2023-10-10T10:21:05.590Z,37.28
2023-10-10T10:23:35.088Z,31.70
2023-10-10T10:26:12.110Z,29.50
2023-10-10T10:28:42.856Z,31.45
2023-10-10T10:31:28.813Z,35.55
2023-10-10T10:34:11.357Z,29.73
2023-10-10T10:36:55.776Z,32.35
2023-10-10T10:39:26.516Z,31.50
2023-10-10T10:41:57.264Z,32.78
2023-10-10T10:44:54.980Z,33.33
2023-10-10T10:47:40.080Z,34.10
2023-10-10T10:50:18.735Z,32.47
2023-10-10T10:52:57.132Z,33.30
2023-10-10T10:55:30.447Z,33.03
2023-10-10T10:58:07.468Z,29.88
2023-10-10T11:01:01.580Z,32.00
2023-10-10T11:03:36.449Z,31.85
2023-10-10T11:06:07.937Z,26.33
2023-10-10T11:11:31.892Z,35.45
2023-10-10T11:14:05.053Z,31.17
2023-10-10T11:16:38.461Z,25.23
2023-10-10T11:19:20.415Z,27.53
2023-10-10T11:21:54.826Z,28.85
2023-10-10T11:24:26.880Z,22.38
2023-10-10T11:27:16.533Z,24.17
2023-10-10T11:29:46.116Z,22.92
2023-10-10T11:32:14.953Z,25.83
2023-10-10T11:34:45.010Z,23.15
2023-10-10T11:37:14.939Z,26.52
2023-10-10T11:39:59.218Z,24.55
2023-10-10T11:42:29.581Z,25.20
2023-10-10T11:45:03.273Z,24.33
2023-10-10T11:47:30.022Z,21.42
2023-10-10T11:50:06.524Z,19.65
2023-10-10T11:52:36.324Z,26.42
2023-10-10T11:55:08.868Z,29.45
2023-10-10T11:57:35.889Z,27.77
2023-10-10T12:00:26.331Z,23.65
2023-10-10T12:02:56.597Z,23.73
2023-10-10T12:05:28.927Z,26.70
2023-10-10T12:07:59.487Z,23.77
2023-10-10T12:10:40.942Z,26.80
2023-10-10T12:13:10.824Z,24.33
2023-10-10T12:15:46.213Z,21.77
2023-10-10T12:18:12.910Z,24.58
2023-10-10T12:20:43.633Z,25.45
2023-10-10T12:23:10.514Z,23.70
2023-10-10T12:25:42.203Z,25.85
2023-10-10T12:28:11.158Z,24.05
2023-10-10T12:30:41.685Z,22.17
2023-10-10T12:33:09.765Z,19.60
2023-10-10T12:35:36.921Z,28.30
2023-10-10T12:38:03.477Z,22.88
2023-10-10T12:40:34.762Z,20.95
2023-10-10T12:43:04.911Z,22.42
2023-10-10T12:45:34.314Z,21.58
2023-10-10T12:48:03.847Z,19.97
2023-10-10T12:50:30.910Z,21.75
2023-10-10T12:53:09.231Z,17.30
2023-10-10T12:55:37.783Z,20.70
2023-10-10T12:58:16.201Z,21.77
2023-10-10T13:00:51.115Z,23.53
2023-10-10T13:03:29.980Z,22.45
2023-10-10T13:06:00.151Z,20.40
2023-10-10T13:08:40.154Z,21.35
2023-10-10T13:11:15.969Z,23.27
2023-10-10T13:13:46.818Z,22.77
2023-10-10T13:16:26.513Z,21.50
2023-10-10T13:18:54.530Z,20.52
2023-10-10T13:21:21.348Z,18.77
2023-10-10T13:23:49.001Z,17.00
2023-10-10T13:26:17.631Z,19.60
2023-10-10T13:28:47.910Z,16.27
2023-10-10T13:31:19.143Z,18.30
2023-10-10T13:33:46.480Z,22.20
2023-10-10T13:36:16.190Z,21.92
2023-10-10T13:38:51.672Z,21.10
2023-10-10T13:41:20.282Z,23.05
2023-10-10T13:43:48.291Z,17.30
2023-10-10T13:46:22.220Z,20.08
2023-10-10T13:48:49.070Z,19.50
2023-10-10T13:51:16.597Z,20.03
2023-10-10T13:53:46.035Z,18.67
2023-10-10T13:56:17.996Z,18.55
2023-10-10T13:58:53.360Z,19.20
2023-10-10T14:01:31.116Z,20.35
2023-10-10T14:04:05.881Z,20.60
2023-10-10T14:06:46.928Z,17.90
2023-10-10T14:09:26.588Z,19.13
2023-10-10T14:11:58.366Z,18.80
2023-10-10T14:14:25.156Z,16.00
2023-10-10T14:16:52.318Z,17.03
2023-10-10T14:19:19.310Z,15.60
2023-10-10T14:21:48.694Z,18.80
2023-10-10T14:24:15.712Z,21.23
2023-10-10T14:26:44.807Z,16.77
2023-10-10T14:29:15.219Z,17.53
2023-10-10T14:31:46.561Z,19.48
2023-10-10T14:34:21.233Z,17.52
2023-10-10T14:36:51.933Z,20.35
2023-10-10T14:39:37.702Z,19.33
2023-10-10T14:42:04.820Z,22.17
2023-10-10T14:44:32.770Z,20.00
2023-10-10T14:46:59.547Z,14.57
2023-10-10T14:49:32.849Z,19.65
2023-10-10T14:52:07.601Z,17.50
2023-10-10T14:54:49.940Z,16.87
2023-10-10T14:57:25.562Z,16.55
2023-10-10T14:59:56.837Z,12.60
2023-10-10T15:02:27.458Z,17.13
2023-10-10T15:04:55.736Z,18.13
2023-10-10T15:07:22.217Z,13.00
2023-10-10T15:09:48.674Z,15.70
2023-10-10T15:12:15.159Z,15.52
2023-10-10T15:14:44.027Z,11.77
2023-10-10T15:17:11.294Z,16.75
2023-10-10T15:19:37.892Z,14.53
2023-10-10T15:22:04.640Z,14.32
2023-10-10T15:24:34.166Z,15.75
2023-10-10T15:27:01.342Z,15.63
2023-10-10T15:29:28.250Z,15.75
2023-10-10T15:31:57.291Z,18.37
2023-10-10T15:34:24.723Z,15.35
2023-10-10T15:36:51.197Z,17.02
2023-10-10T15:39:18.437Z,15.35
2023-10-10T15:41:45.970Z,15.68
2023-10-10T15:44:13.832Z,16.87
2023-10-10T15:46:44.015Z,16.85
2023-10-10T15:49:25.210Z,15.45
2023-10-10T15:52:05.572Z,19.08
2023-10-10T15:54:35.302Z,16.35
2023-10-10T15:57:05.348Z,17.17
2023-10-10T15:59:31.900Z,15.18
2023-10-10T16:01:59.540Z,15.95
2023-10-10T16:04:27.463Z,15.48
2023-10-10T16:06:53.971Z,15.00
2023-10-10T16:09:21.660Z,15.43
2023-10-10T16:11:54.620Z,15.45
2023-10-10T16:14:21.684Z,14.95
2023-10-10T16:16:49.039Z,16.13
2023-10-10T16:19:21.870Z,15.55
2023-10-10T16:21:49.627Z,14.20
2023-10-10T16:24:16.161Z,16.02
2023-10-10T16:26:43.955Z,18.33
2023-10-10T16:29:12.341Z,18.23
2023-10-10T16:31:44.387Z,13.25
2023-10-10T16:34:12.253Z,15.70
2023-10-10T16:36:39.205Z,18.15
2023-10-10T16:39:12.132Z,15.85
2023-10-10T16:41:39.293Z,20.48
2023-10-10T16:44:05.961Z,17.15
2023-10-10T16:46:33.146Z,18.77
2023-10-10T16:49:00.252Z,14.85
2023-10-10T16:51:33.271Z,13.30
2023-10-10T16:54:00.359Z,18.15
2023-10-10T16:56:27.397Z,14.50
2023-10-10T16:58:53.889Z,16.23
2023-10-10T17:01:24.094Z,13.38
2023-10-10T17:03:55.548Z,15.10
2023-10-10T17:06:24.039Z,13.27
2023-10-10T17:08:54.363Z,16.08
2023-10-10T17:11:24.230Z,13.53
2023-10-10T17:13:52.243Z,19.55
2023-10-10T17:16:26.953Z,13.35
2023-10-10T17:18:54.698Z,15.80
2023-10-10T17:21:26.001Z,14.85
2023-10-10T17:23:56.155Z,16.07
2023-10-10T17:26:23.190Z,14.25
2023-10-10T17:28:51.239Z,12.88
2023-10-10T17:31:24.136Z,14.43
2023-10-10T17:33:55.423Z,13.25
2023-10-10T17:36:23.923Z,16.90
2023-10-10T17:38:53.576Z,13.88
2023-10-10T17:41:20.628Z,14.73
2023-10-10T17:43:47.134Z,16.33
2023-10-10T17:46:21.459Z,13.25
2023-10-10T17:48:55.610Z,13.80
2023-10-10T17:51:24.998Z,13.65
2023-10-10T17:53:53.201Z,12.88
2023-10-10T17:56:24.288Z,16.85
2023-10-10T17:58:51.534Z,14.38
2023-10-10T18:01:21.249Z,14.23
2023-10-10T18:03:54.386Z,12.15
2023-10-10T18:06:22.826Z,13.35
2023-10-10T18:08:50.868Z,15.45
2023-10-10T18:11:17.550Z,12.20
2023-10-10T18:13:45.062Z,13.93
2023-10-10T18:16:11.616Z,12.70
2023-10-10T18:18:39.665Z,14.43
2023-10-10T18:21:08.930Z,14.63
2023-10-10T18:23:36.284Z,16.40
2023-10-10T18:26:10.658Z,12.43
2023-10-10T18:28:37.101Z,12.30
2023-10-10T18:31:03.595Z,12.45
2023-10-10T18:33:30.338Z,14.13
2023-10-10T18:35:56.944Z,12.60
2023-10-10T18:38:23.382Z,14.13
2023-10-10T18:40:49.834Z,12.15
2023-10-10T18:43:16.319Z,12.57
2023-10-10T18:45:42.760Z,12.80
2023-10-10T18:48:12.031Z,10.93
2023-10-10T18:50:40.123Z,13.27
2023-10-10T18:53:06.872Z,11.15
2023-10-10T18:55:33.386Z,10.20
2023-10-10T18:58:01.559Z,11.98
2023-10-10T19:00:29.846Z,9.57
2023-10-10T19:02:58.066Z,13.30
2023-10-10T19:05:27.516Z,9.80
2023-10-10T19:07:56.923Z,10.23
2023-10-10T19:10:25.616Z,8.93
2023-10-10T19:12:53.523Z,9.57
2023-10-10T19:15:20.947Z,8.93
2023-10-10T19:17:49.164Z,9.32
2023-10-10T19:20:19.307Z,6.60
2023-10-10T19:22:49.433Z,11.55
2023-10-10T19:25:20.179Z,6.57
2023-10-10T19:27:50.078Z,14.43
2023-10-10T19:30:19.641Z,6.88
2023-10-10T19:32:51.017Z,10.68
2023-10-10T19:35:20.851Z,8.75
2023-10-10T19:37:48.632Z,8.60
2023-10-10T19:40:20.119Z,7.27
2023-10-10T19:42:46.762Z,9.32
2023-10-10T19:45:24.610Z,7.30
2023-10-10T19:48:06.627Z,6.07
2023-10-10T19:50:43.394Z,9.40
2023-10-10T19:53:11.346Z,6.47
2023-10-10T19:55:39.038Z,7.78
2023-10-10T19:58:10.880Z,6.60
2023-10-10T20:00:40.349Z,8.43
2023-10-10T20:03:07.960Z,5.72
2023-10-10T20:05:38.146Z,7.33
2023-10-10T20:08:06.505Z,11.93
2023-10-10T20:10:33.195Z,7.15
2023-10-10T20:13:00.467Z,9.52
2023-10-10T20:15:30.292Z,7.65
2023-10-10T20:18:01.634Z,8.37
2023-10-10T20:20:28.477Z,7.82
2023-10-10T20:22:58.091Z,9.68
2023-10-10T20:25:25.089Z,7.20
2023-10-10T20:27:51.938Z,9.80
2023-10-10T20:30:20.233Z,9.37
2023-10-10T20:32:47.898Z,7.10
2023-10-10T20:35:18.241Z,9.00
2023-10-10T20:37:46.399Z,10.57
2023-10-10T20:40:19.913Z,10.30
2023-10-10T20:42:47.876Z,8.33
2023-10-10T20:45:18.758Z,8.25
2023-10-10T20:47:46.939Z,10.65
2023-10-10T20:50:15.420Z,6.88
2023-10-10T20:52:42.923Z,8.07
2023-10-10T20:55:14.348Z,7.03
2023-10-10T20:57:41.070Z,11.60
2023-10-10T21:00:12.824Z,12.75
2023-10-10T21:02:43.446Z,7.53
2023-10-10T21:05:10.192Z,10.70
2023-10-10T21:07:39.319Z,7.93
2023-10-10T21:10:10.550Z,6.50
2023-10-10T21:12:38.574Z,8.45
2023-10-10T21:15:06.213Z,7.43
2023-10-10T21:17:34.038Z,6.90
2023-10-10T21:20:05.842Z,12.63
2023-10-10T21:22:32.262Z,10.35
2023-10-10T21:25:01.117Z,9.48
2023-10-10T21:27:27.612Z,9.38
2023-10-10T21:29:54.556Z,7.55
2023-10-10T21:32:22.395Z,7.93
2023-10-10T21:34:49.005Z,8.75
2023-10-10T21:37:16.578Z,9.48
2023-10-10T21:39:43.036Z,9.27
2023-10-10T21:42:15.843Z,6.80
2023-10-10T21:44:42.593Z,7.10
2023-10-10T21:47:09.663Z,12.48
2023-10-10T21:49:38.416Z,8.10
2023-10-10T21:52:06.981Z,7.55
2023-10-10T21:54:33.841Z,7.45
2023-10-10T21:57:00.571Z,11.67
2023-10-10T21:59:27.173Z,9.30
2023-10-10T22:01:53.668Z,15.38
2023-10-10T22:04:20.779Z,9.77
2023-10-10T22:06:48.144Z,12.05
2023-10-10T22:09:18.331Z,13.33
2023-10-10T22:11:47.809Z,12.23
2023-10-10T22:14:14.907Z,14.20
2023-10-10T22:16:45.796Z,13.35
2023-10-10T22:19:12.751Z,16.13
2023-10-10T22:21:40.418Z,17.27
2023-10-10T22:24:07.792Z,18.33
2023-10-10T22:26:34.982Z,17.13
2023-10-10T22:29:02.134Z,25.25
2023-10-10T22:31:32.436Z,17.08
2023-10-10T22:33:59.889Z,16.83
2023-10-10T22:36:28.798Z,18.75
2023-10-10T22:38:55.398Z,18.83
2023-10-10T22:41:21.952Z,19.40
2023-10-10T22:43:49.651Z,17.20
2023-10-10T22:46:16.198Z,20.90
2023-10-10T22:48:44.297Z,23.73
2023-10-10T22:51:13.912Z,19.10
2023-10-10T22:53:40.962Z,18.92
2023-10-10T22:56:13.898Z,23.33
2023-10-10T22:58:43.737Z,20.17
2023-10-10T23:01:15.899Z,20.25
2023-10-10T23:03:44.365Z,24.98
2023-10-10T23:06:13.325Z,21.15
2023-10-10T23:08:40.789Z,20.33
2023-10-10T23:11:07.750Z,22.47
2023-10-10T23:13:35.585Z,21.63
2023-10-10T23:16:02.077Z,23.02
2023-10-10T23:18:28.641Z,18.10
2023-10-10T23:20:56.550Z,22.85
2023-10-10T23:23:23.116Z,20.20
2023-10-10T23:25:49.621Z,21.48
2023-10-10T23:28:16.281Z,24.80
2023-10-10T23:30:43.361Z,21.35
2023-10-10T23:33:14.257Z,18.63
2023-10-10T23:35:41.354Z,19.80
2023-10-10T23:38:08.004Z,21.40
2023-10-10T23:40:40.984Z,24.95
2023-10-10T23:43:22.487Z,23.75
2023-10-10T23:45:57.872Z,28.98
2023-10-10T23:48:31.402Z,22.00
2023-10-10T23:55:01.948Z,25.42
2023-10-10T23:57:29.476Z,26.52
2023-10-10T23:59:55.951Z,27.45
